createdAt,value
2018-08-19T00:00:46.227Z,4.67
2018-08-19T00:03:15.017Z,4.17
2018-08-19T00:05:43.729Z,4.33
2018-08-19T00:08:12.617Z,5.07
2018-08-19T00:11:10.085Z,4.30
2018-08-19T00:13:39.861Z,3.60
2018-08-19T00:16:09.946Z,4.80
2018-08-19T00:18:38.781Z,4.40
2018-08-19T00:21:10.776Z,4.50
2018-08-19T00:23:44.834Z,5.43
2018-08-19T00:26:15.411Z,5.10
2018-08-19T00:28:44.209Z,4.73
2018-08-19T00:31:12.926Z,4.43
2018-08-19T00:33:41.691Z,4.70
2018-08-19T00:36:24.378Z,4.30
2018-08-19T00:38:53.342Z,4.37
2018-08-19T00:41:22.156Z,4.57
2018-08-19T00:43:51.373Z,3.80
2018-08-19T00:46:27.722Z,4.30
2018-08-19T00:48:56.811Z,3.90
2018-08-19T00:51:25.526Z,4.50
2018-08-19T00:53:54.213Z,4.30
2018-08-19T00:56:23.270Z,4.00
2018-08-19T00:58:51.918Z,4.53
2018-08-19T01:01:31.682Z,4.20
2018-08-19T01:04:00.545Z,4.30
2018-08-19T01:06:29.273Z,3.90
2018-08-19T01:08:58.115Z,4.80
2018-08-19T01:11:34.687Z,4.67
2018-08-19T01:14:08.866Z,3.73
2018-08-19T01:16:37.658Z,3.80
2018-08-19T01:19:06.495Z,5.10
2018-08-19T01:21:35.259Z,4.73
2018-08-19T01:24:11.928Z,4.40
2018-08-19T01:26:42.459Z,4.30
2018-08-19T01:29:12.109Z,4.87
2018-08-19T01:31:40.844Z,4.20
2018-08-19T01:34:14.061Z,4.50
2018-08-19T01:36:43.124Z,4.47
2018-08-19T01:39:13.618Z,4.50
2018-08-19T01:41:42.911Z,4.27
2018-08-19T01:44:15.252Z,3.93
2018-08-19T01:46:50.885Z,4.97
2018-08-19T01:49:19.678Z,5.17
2018-08-19T01:51:48.349Z,4.73
2018-08-19T01:54:22.205Z,3.87
2018-08-19T01:56:58.793Z,4.53
2018-08-19T01:59:35.726Z,4.37
2018-08-19T02:02:06.581Z,4.57
2018-08-19T02:05:07.922Z,4.73
2018-08-19T02:07:36.578Z,5.07
2018-08-19T02:10:08.835Z,5.20
2018-08-19T02:12:38.345Z,4.40
2018-08-19T02:15:08.418Z,4.73
2018-08-19T02:18:15.320Z,4.20
2018-08-19T02:20:44.054Z,5.30
2018-08-19T02:23:13.604Z,4.60
2018-08-19T02:25:45.558Z,4.70
2018-08-19T02:28:16.936Z,5.73
2018-08-19T02:30:52.767Z,4.97
2018-08-19T02:33:22.845Z,4.57
2018-08-19T02:36:00.873Z,4.67
2018-08-19T02:38:29.670Z,4.47
2018-08-19T02:40:58.450Z,4.20
2018-08-19T02:43:27.138Z,4.70
2018-08-19T02:45:55.986Z,4.80
2018-08-19T02:48:40.842Z,4.90
2018-08-19T02:51:10.874Z,4.50
2018-08-19T02:53:39.999Z,4.80
2018-08-19T02:56:09.081Z,5.17
2018-08-19T02:58:37.928Z,5.83
2018-08-19T03:01:06.790Z,7.73
2018-08-19T03:03:35.558Z,6.83
2018-08-19T03:06:04.289Z,6.80
2018-08-19T03:08:33.464Z,7.33
2018-08-19T03:11:02.185Z,5.33
2018-08-19T03:13:31.087Z,5.00
2018-08-19T03:15:59.863Z,5.00
2018-08-19T03:18:28.590Z,5.90
2018-08-19T03:20:57.267Z,6.67
2018-08-19T03:23:25.958Z,7.40
2018-08-19T03:25:54.693Z,7.40
2018-08-19T03:28:23.706Z,5.97
2018-08-19T03:30:57.599Z,5.40
2018-08-19T03:33:26.247Z,5.27
2018-08-19T03:35:54.897Z,5.50
2018-08-19T03:38:25.858Z,7.40
2018-08-19T03:40:55.845Z,6.37
2018-08-19T03:43:25.107Z,7.97
2018-08-19T03:45:53.741Z,7.40
2018-08-19T03:48:22.406Z,8.10
2018-08-19T03:50:51.079Z,8.50
2018-08-19T03:53:19.743Z,7.70
2018-08-19T03:55:48.363Z,7.10
2018-08-19T03:58:17.133Z,7.80
2018-08-19T04:00:46.277Z,7.50
2018-08-19T04:03:20.965Z,8.07
2018-08-19T04:05:53.061Z,7.73
2018-08-19T04:08:21.880Z,7.80
2018-08-19T04:10:50.669Z,7.83
2018-08-19T04:13:36.194Z,8.00
2018-08-19T04:16:06.460Z,7.60
2018-08-19T04:18:45.019Z,7.17
2018-08-19T04:21:15.249Z,7.73
2018-08-19T04:23:48.334Z,7.60
2018-08-19T04:26:17.082Z,8.17
2018-08-19T04:28:46.316Z,9.53
2018-08-19T04:31:20.388Z,7.30
2018-08-19T04:33:49.751Z,8.10
2018-08-19T04:36:19.860Z,6.90
2018-08-19T04:38:48.649Z,7.87
2018-08-19T04:41:17.598Z,8.63
2018-08-19T04:43:47.097Z,7.90
2018-08-19T04:46:15.961Z,7.50
2018-08-19T04:48:46.125Z,7.37
2018-08-19T04:51:14.878Z,8.40
2018-08-19T04:53:43.533Z,7.00
2018-08-19T04:56:12.194Z,7.90
2018-08-19T04:58:42.101Z,7.57
2018-08-19T05:01:12.097Z,8.60
2018-08-19T05:03:42.997Z,8.63
2018-08-19T05:06:11.760Z,7.97
2018-08-19T05:08:40.431Z,8.00
2018-08-19T05:11:09.257Z,8.50
2018-08-19T05:13:37.959Z,8.17
2018-08-19T05:16:06.930Z,8.40
2018-08-19T05:18:35.676Z,7.20
2018-08-19T05:21:09.734Z,8.60
2018-08-19T05:23:38.485Z,8.80
2018-08-19T05:26:07.421Z,8.60
2018-08-19T05:28:36.130Z,7.97
2018-08-19T05:31:04.898Z,8.00
2018-08-19T05:33:33.681Z,8.50
2018-08-19T05:36:02.425Z,8.80
2018-08-19T05:38:32.357Z,9.60
2018-08-19T05:41:02.510Z,8.67
2018-08-19T05:43:31.981Z,9.30
2018-08-19T05:46:01.735Z,9.17
2018-08-19T05:48:30.408Z,7.90
2018-08-19T05:50:59.585Z,9.53
2018-08-19T05:53:28.606Z,8.60
2018-08-19T05:55:57.289Z,8.87
2018-08-19T05:58:25.988Z,8.57
2018-08-19T06:01:00.777Z,9.80
2018-08-19T06:03:30.005Z,8.63
2018-08-19T06:05:59.117Z,9.77
2018-08-19T06:08:27.869Z,9.47
2018-08-19T06:10:56.687Z,10.10
2018-08-19T06:13:27.629Z,9.13
2018-08-19T06:15:56.335Z,9.97
2018-08-19T06:18:25.116Z,8.30
2018-08-19T06:20:53.802Z,8.20
2018-08-19T06:23:22.621Z,8.90
2018-08-19T06:25:51.436Z,10.43
2018-08-19T06:28:20.128Z,9.37
2018-08-19T06:30:48.937Z,8.63
2018-08-19T06:33:17.594Z,9.63
2018-08-19T06:35:46.518Z,7.90
2018-08-19T06:38:15.287Z,8.33
2018-08-19T06:40:43.958Z,8.90
2018-08-19T06:43:13.611Z,9.77
2018-08-19T06:45:42.318Z,9.60
2018-08-19T06:48:11.569Z,9.57
2018-08-19T06:50:40.317Z,9.50
2018-08-19T06:53:14.682Z,9.73
2018-08-19T06:55:43.430Z,9.23
2018-08-19T06:58:12.945Z,7.80
2018-08-19T07:00:41.758Z,7.90
2018-08-19T07:03:10.506Z,8.80
2018-08-19T07:05:39.900Z,9.30
2018-08-19T07:08:08.621Z,7.80
2018-08-19T07:10:38.664Z,8.50
2018-08-19T07:13:10.005Z,8.40
2018-08-19T07:15:39.948Z,8.10
2018-08-19T07:18:11.753Z,9.20
2018-08-19T07:20:41.723Z,8.07
2018-08-19T07:23:11.123Z,8.57
2018-08-19T07:25:42.115Z,8.53
2018-08-19T07:28:12.184Z,7.50
2018-08-19T07:30:41.558Z,8.80
2018-08-19T07:33:11.797Z,10.67
2018-08-19T07:35:40.553Z,8.30
2018-08-19T07:38:09.241Z,8.23
2018-08-19T07:40:38.581Z,9.13
2018-08-19T07:43:07.486Z,8.20
2018-08-19T07:45:36.324Z,10.70
2018-08-19T07:48:05.367Z,8.70
2018-08-19T07:50:34.126Z,8.77
2018-08-19T07:53:03.006Z,8.90
2018-08-19T07:55:31.835Z,9.27
2018-08-19T07:58:00.613Z,8.27
2018-08-19T08:00:34.549Z,7.43
2018-08-19T08:03:03.421Z,8.97
2018-08-19T08:05:38.246Z,7.80
2018-08-19T08:08:08.575Z,9.00
2018-08-19T08:10:37.865Z,9.10
2018-08-19T08:13:10.180Z,8.33
2018-08-19T08:15:56.896Z,8.90
2018-08-19T08:18:25.843Z,8.70
2018-08-19T08:21:01.114Z,8.30
2018-08-19T08:23:30.394Z,9.17
2018-08-19T08:25:59.193Z,8.37
2018-08-19T08:28:27.925Z,9.70
2018-08-19T08:30:56.742Z,7.73
2018-08-19T08:33:25.514Z,9.03
2018-08-19T08:35:57.432Z,7.57
2018-08-19T08:38:26.683Z,7.57
2018-08-19T08:40:56.085Z,7.40
2018-08-19T08:43:24.808Z,8.53
2018-08-19T08:45:56.503Z,8.90
2018-08-19T08:48:25.555Z,8.20
2018-08-19T08:50:54.249Z,8.10
2018-08-19T08:53:25.635Z,7.10
2018-08-19T08:55:54.460Z,7.70
2018-08-19T08:58:23.146Z,6.93
2018-08-19T09:00:51.927Z,6.70
2018-08-19T09:03:20.639Z,8.17
2018-08-19T09:05:49.748Z,7.60
2018-08-19T09:08:18.500Z,6.33
2018-08-19T09:10:48.331Z,6.93
2018-08-19T09:13:17.435Z,6.60
2018-08-19T09:15:46.165Z,6.37
2018-08-19T09:18:14.890Z,6.57
2018-08-19T09:20:43.611Z,6.40
2018-08-19T09:23:12.307Z,6.23
2018-08-19T09:25:41.058Z,6.40
2018-08-19T09:28:09.893Z,6.10
2018-08-19T09:30:41.523Z,6.57
2018-08-19T09:33:10.942Z,6.37
2018-08-19T09:35:41.154Z,5.77
2018-08-19T09:38:14.703Z,5.50
2018-08-19T09:40:44.195Z,5.80
2018-08-19T09:43:13.423Z,5.83
2018-08-19T09:45:43.164Z,5.90
2018-08-19T09:48:12.669Z,7.93
2018-08-19T09:50:42.174Z,5.03
2018-08-19T09:53:10.856Z,5.03
2018-08-19T09:55:42.946Z,5.00
2018-08-19T09:58:15.403Z,4.77
2018-08-19T10:00:49.517Z,5.07
2018-08-19T10:03:18.618Z,4.70
2018-08-19T10:05:47.370Z,4.50
2018-08-19T10:08:16.400Z,4.90
2018-08-19T10:10:45.400Z,5.33
2018-08-19T10:13:15.765Z,4.70
2018-08-19T10:15:44.786Z,5.00
2018-08-19T10:18:13.651Z,4.73
2018-08-19T10:20:42.357Z,5.23
2018-08-19T10:23:11.192Z,5.23
2018-08-19T10:25:39.983Z,4.97
2018-08-19T10:28:09.077Z,5.10
2018-08-19T10:30:44.519Z,4.53
2018-08-19T10:33:13.751Z,4.20
2018-08-19T10:35:42.422Z,4.37
2018-08-19T10:38:11.358Z,4.73
2018-08-19T10:40:40.078Z,5.50
2018-08-19T10:43:10.507Z,5.90
2018-08-19T10:45:41.617Z,5.00
2018-08-19T10:48:12.046Z,4.80
2018-08-19T10:50:40.937Z,5.10
2018-08-19T10:53:16.199Z,4.63
2018-08-19T10:55:46.434Z,5.87
2018-08-19T10:58:15.277Z,5.00
2018-08-19T11:00:44.025Z,4.83
2018-08-19T11:03:21.093Z,5.60
2018-08-19T11:05:51.611Z,5.20
2018-08-19T11:08:20.629Z,5.37
2018-08-19T11:10:49.397Z,5.43
2018-08-19T11:13:22.421Z,4.93
2018-08-19T11:15:53.315Z,4.30
2018-08-19T11:18:42.895Z,4.97
2018-08-19T11:21:25.928Z,4.83
2018-08-19T11:23:55.621Z,5.87
2018-08-19T11:26:24.440Z,4.63
2018-08-19T11:28:59.430Z,5.20
2018-08-19T11:31:33.562Z,5.30
2018-08-19T11:34:04.830Z,5.70
2018-08-19T11:36:38.915Z,4.60
2018-08-19T11:39:12.544Z,5.50
2018-08-19T11:41:41.321Z,4.87
2018-08-19T11:44:13.175Z,5.07
2018-08-19T11:46:41.884Z,5.03
2018-08-19T11:49:15.076Z,5.43
2018-08-19T11:51:50.109Z,5.67
2018-08-19T11:54:19.839Z,5.10
2018-08-19T11:56:56.975Z,4.87
2018-08-19T11:59:30.923Z,4.53
2018-08-19T12:01:59.801Z,4.93
2018-08-19T12:04:28.439Z,4.57
2018-08-19T12:06:57.118Z,4.70
2018-08-19T12:09:25.780Z,4.70
2018-08-19T12:11:54.534Z,4.27
2018-08-19T12:14:23.189Z,4.90
2018-08-19T12:16:54.806Z,4.10
2018-08-19T12:19:25.618Z,3.70
2018-08-19T12:22:04.149Z,4.33
2018-08-19T12:24:40.097Z,3.83
2018-08-19T12:27:10.209Z,4.30
2018-08-19T12:29:40.229Z,3.77
2018-08-19T12:32:26.357Z,3.87
2018-08-19T12:34:57.342Z,3.80
2018-08-19T12:37:27.208Z,2.97
2018-08-19T12:39:56.640Z,3.97
2018-08-19T12:42:25.916Z,3.73
2018-08-19T12:45:00.361Z,3.70
2018-08-19T12:47:29.626Z,3.33
2018-08-19T12:50:00.747Z,3.63
2018-08-19T12:52:32.746Z,3.40
2018-08-19T12:55:06.919Z,3.20
2018-08-19T12:57:36.757Z,3.47
2018-08-19T13:00:25.615Z,3.70
2018-08-19T13:02:54.805Z,3.20
2018-08-19T13:05:23.986Z,3.03
2018-08-19T13:07:53.528Z,4.40
2018-08-19T13:10:23.019Z,3.70
2018-08-19T13:12:55.701Z,3.40
2018-08-19T13:15:25.714Z,2.73
2018-08-19T13:17:55.295Z,2.93
2018-08-19T13:20:23.994Z,2.93
2018-08-19T13:22:58.153Z,2.40
2018-08-19T13:25:26.940Z,2.77
2018-08-19T13:27:55.791Z,3.03
2018-08-19T13:30:24.593Z,2.40
2018-08-19T13:32:53.701Z,2.57
2018-08-19T13:35:22.517Z,2.70
2018-08-19T13:37:51.889Z,2.80
2018-08-19T13:40:20.636Z,3.10
2018-08-19T13:42:49.322Z,2.50
2018-08-19T13:45:19.308Z,3.10
2018-08-19T13:47:50.302Z,2.37
2018-08-19T13:50:19.118Z,3.17
2018-08-19T13:52:47.885Z,2.30
2018-08-19T13:55:18.542Z,3.27
2018-08-19T13:57:47.311Z,3.40
2018-08-19T14:00:17.834Z,2.77
2018-08-19T14:02:47.454Z,3.00
2018-08-19T14:05:16.156Z,3.53
2018-08-19T14:07:45.040Z,3.43
2018-08-19T14:10:15.036Z,3.90
2018-08-19T14:12:43.854Z,3.90
2018-08-19T14:15:12.622Z,3.43
2018-08-19T14:17:41.417Z,3.80
2018-08-19T14:20:10.941Z,3.40
2018-08-19T14:22:39.638Z,3.80
2018-08-19T14:25:10.147Z,3.50
2018-08-19T14:27:39.161Z,3.67
2018-08-19T14:30:15.235Z,3.37
2018-08-19T14:32:45.122Z,4.70
2018-08-19T14:35:14.082Z,3.97
2018-08-19T14:37:42.990Z,4.10
2018-08-19T14:40:16.620Z,3.63
2018-08-19T14:42:45.913Z,4.17
2018-08-19T14:45:14.665Z,4.20
2018-08-19T14:47:43.397Z,4.23
2018-08-19T14:50:17.285Z,4.17
2018-08-19T14:52:46.149Z,3.60
2018-08-19T14:55:14.873Z,4.77
2018-08-19T14:57:43.730Z,4.00
2018-08-19T15:00:16.641Z,3.87
2018-08-19T15:02:45.543Z,4.30
2018-08-19T15:05:16.061Z,3.63
2018-08-19T15:07:45.015Z,4.03
2018-08-19T15:17:25.832Z,3.87
2018-08-19T15:19:55.051Z,4.40
2018-08-19T15:22:23.897Z,3.70
2018-08-19T15:24:53.149Z,3.53
2018-08-19T15:27:22.051Z,3.40
2018-08-19T15:29:51.970Z,3.97
2018-08-19T15:32:23.154Z,3.70
2018-08-19T15:34:52.035Z,3.23
2018-08-19T15:37:20.783Z,3.50
2018-08-19T15:39:49.497Z,3.10
2018-08-19T15:42:18.413Z,3.70
2018-08-19T15:44:47.096Z,4.00
2018-08-19T15:47:15.795Z,4.87
2018-08-19T15:49:44.447Z,6.77
2018-08-19T15:52:13.292Z,6.43
2018-08-19T15:54:47.741Z,4.60
2018-08-19T15:57:16.689Z,4.00
2018-08-19T15:59:45.328Z,5.37
2018-08-19T16:02:14.111Z,6.97
2018-08-19T16:04:42.880Z,5.97
2018-08-19T16:07:11.611Z,4.73
2018-08-19T16:09:40.685Z,5.07
2018-08-19T16:12:09.579Z,4.77
2018-08-19T16:14:38.252Z,3.80
2018-08-19T16:17:07.166Z,3.70
2018-08-19T16:19:35.834Z,4.13
2018-08-19T16:22:04.637Z,4.37
2018-08-19T16:24:33.370Z,4.53
2018-08-19T16:27:02.066Z,3.70
2018-08-19T16:29:30.943Z,3.90
2018-08-19T16:31:59.641Z,3.70
2018-08-19T16:34:28.306Z,4.37
2018-08-19T16:36:57.071Z,4.10
2018-08-19T16:39:25.902Z,3.93
2018-08-19T16:41:54.651Z,4.17
2018-08-19T16:44:23.488Z,4.20
2018-08-19T16:46:52.944Z,3.60
2018-08-19T16:49:21.612Z,4.33
2018-08-19T16:51:50.268Z,4.23
2018-08-19T16:54:19.205Z,4.33
2018-08-19T16:56:47.958Z,4.57
2018-08-19T16:59:16.703Z,4.60
2018-08-19T17:01:45.535Z,4.80
2018-08-19T17:04:14.450Z,4.40
2018-08-19T17:06:49.953Z,4.60
2018-08-19T17:09:18.657Z,5.07
2018-08-19T17:11:47.362Z,4.80
2018-08-19T17:14:16.010Z,4.20
2018-08-19T17:16:44.713Z,5.03
2018-08-19T17:19:13.656Z,4.30
2018-08-19T17:21:42.397Z,3.53
2018-08-19T17:24:11.205Z,4.63
2018-08-19T17:26:39.964Z,5.10
2018-08-19T17:29:14.110Z,3.63
2018-08-19T17:31:42.914Z,3.70
2018-08-19T17:34:14.922Z,3.40
2018-08-19T17:36:43.986Z,4.20
2018-08-19T17:39:18.008Z,3.60
2018-08-19T17:41:47.071Z,3.30
2018-08-19T17:44:15.847Z,3.20
2018-08-19T17:46:44.501Z,3.43
2018-08-19T17:49:18.911Z,3.70
2018-08-19T17:51:47.578Z,4.07
2018-08-19T17:54:22.398Z,3.70
2018-08-19T17:56:51.688Z,3.70
2018-08-19T17:59:20.427Z,4.70
2018-08-19T18:01:49.069Z,3.93
2018-08-19T18:04:17.977Z,3.87
2018-08-19T18:06:46.656Z,3.50
2018-08-19T18:09:17.698Z,3.37
2018-08-19T18:11:54.303Z,4.97
2018-08-19T18:14:23.163Z,3.93
2018-08-19T18:16:51.916Z,4.67
2018-08-19T18:19:20.657Z,4.90
2018-08-19T18:21:49.382Z,5.07
2018-08-19T18:24:18.078Z,5.40
2018-08-19T18:26:46.800Z,4.03
2018-08-19T18:29:17.664Z,5.90
2018-08-19T18:31:49.959Z,6.23
2018-08-19T18:34:18.643Z,4.67
2018-08-19T18:36:47.308Z,6.10
2018-08-19T18:39:16.057Z,6.03
2018-08-19T18:41:46.109Z,4.43
2018-08-19T18:44:14.898Z,5.27
2018-08-19T18:46:43.653Z,4.40
2018-08-19T18:49:13.886Z,4.67
2018-08-19T18:51:44.776Z,4.03
2018-08-19T18:54:22.094Z,4.77
2018-08-19T18:56:50.867Z,4.30
2018-08-19T18:59:19.586Z,3.87
2018-08-19T19:01:48.385Z,3.93
2018-08-19T19:04:17.225Z,4.20
2018-08-19T19:06:47.425Z,4.03
2018-08-19T19:09:16.144Z,4.23
2018-08-19T19:11:44.892Z,3.73
2018-08-19T19:14:19.029Z,4.20
2018-08-19T19:16:49.849Z,4.50
2018-08-19T19:19:18.649Z,4.70
2018-08-19T19:21:51.946Z,4.33
2018-08-19T19:24:25.031Z,4.40
2018-08-19T19:26:53.787Z,4.00
2018-08-19T19:29:26.894Z,5.20
2018-08-19T19:31:56.882Z,4.30
2018-08-19T19:34:25.681Z,3.80
2018-08-19T19:36:54.409Z,4.87
2018-08-19T19:39:23.084Z,4.63
2018-08-19T19:41:56.419Z,4.70
2018-08-19T19:44:27.770Z,4.70
2018-08-19T19:46:56.593Z,4.77
2018-08-19T19:49:25.454Z,4.70
2018-08-19T19:51:57.668Z,4.87
2018-08-19T19:54:27.596Z,4.40
2018-08-19T19:56:56.265Z,3.73
2018-08-19T19:59:28.259Z,3.97
2018-08-19T20:01:57.144Z,5.77
2018-08-19T20:04:26.065Z,5.00
2018-08-19T20:06:54.956Z,4.33
2018-08-19T20:09:23.647Z,4.87
2018-08-19T20:11:52.567Z,4.50
2018-08-19T20:14:21.330Z,4.50
2018-08-19T20:16:50.012Z,4.80
2018-08-19T20:19:18.752Z,5.97
2018-08-19T20:21:47.489Z,4.17
2018-08-19T20:24:16.614Z,5.33
2018-08-19T20:26:45.397Z,4.90
2018-08-19T20:29:14.055Z,4.63
2018-08-19T20:31:42.869Z,4.00
2018-08-19T20:34:11.588Z,5.00
2018-08-19T20:36:40.366Z,5.20
2018-08-19T20:39:09.051Z,4.47
2018-08-19T20:41:37.823Z,3.77
2018-08-19T20:44:08.568Z,4.83
2018-08-19T20:46:38.824Z,4.10
2018-08-19T20:49:07.788Z,4.73
2018-08-19T20:51:36.658Z,5.00
2018-08-19T20:54:05.362Z,4.30
2018-08-19T20:56:34.011Z,5.03
2018-08-19T20:59:02.809Z,3.97
2018-08-19T21:01:31.723Z,4.57
2018-08-19T21:04:00.373Z,4.67
2018-08-19T21:06:29.211Z,4.33
2018-08-19T21:08:58.098Z,4.77
2018-08-19T21:11:26.779Z,3.63
2018-08-19T21:13:55.769Z,4.27
2018-08-19T21:16:24.578Z,4.67
2018-08-19T21:18:53.424Z,4.73
2018-08-19T21:21:22.401Z,4.50
2018-08-19T21:23:51.118Z,4.17
2018-08-19T21:26:20.030Z,5.00
2018-08-19T21:28:53.874Z,4.80
2018-08-19T21:31:22.573Z,4.63
2018-08-19T21:33:51.275Z,6.60
2018-08-19T21:36:20.008Z,5.00
2018-08-19T21:38:48.913Z,4.53
2018-08-19T21:41:17.546Z,4.90
2018-08-19T21:43:46.574Z,4.80
2018-08-19T21:46:15.354Z,4.73
2018-08-19T21:48:44.064Z,4.23
2018-08-19T21:51:12.873Z,4.23
2018-08-19T21:53:41.577Z,4.73
2018-08-19T21:56:10.317Z,4.07
2018-08-19T21:58:39.064Z,4.60
2018-08-19T22:01:13.077Z,4.63
2018-08-19T22:03:47.154Z,4.30
2018-08-19T22:06:15.939Z,4.60
2018-08-19T22:08:44.668Z,4.83
2018-08-19T22:11:13.402Z,4.37
2018-08-19T22:13:42.242Z,4.17
2018-08-19T22:16:10.908Z,4.90
2018-08-19T22:18:39.616Z,4.17
2018-08-19T22:21:14.041Z,4.53
2018-08-19T22:23:46.168Z,4.80
2018-08-19T22:26:16.130Z,4.50
2018-08-19T22:28:45.460Z,4.43
2018-08-19T22:31:25.929Z,4.43
2018-08-19T22:33:58.608Z,4.53
2018-08-19T22:36:27.471Z,4.63
2018-08-19T22:38:57.107Z,4.73
2018-08-19T22:41:28.351Z,4.33
2018-08-19T22:43:57.504Z,4.27
2018-08-19T22:46:27.131Z,5.00
2018-08-19T22:48:56.633Z,4.63
2018-08-19T22:51:25.974Z,4.40
2018-08-19T22:53:55.779Z,4.47
2018-08-19T22:56:24.632Z,4.67
2018-08-19T22:58:53.663Z,5.20
2018-08-19T23:01:22.862Z,4.33
2018-08-19T23:03:58.603Z,4.70
2018-08-19T23:06:28.329Z,4.97
2018-08-19T23:08:57.036Z,4.73
2018-08-19T23:11:35.689Z,4.77
2018-08-19T23:14:16.295Z,4.93
2018-08-19T23:16:45.384Z,4.30
2018-08-19T23:19:14.070Z,4.27
2018-08-19T23:21:42.849Z,5.70
2018-08-19T23:24:11.523Z,4.60
2018-08-19T23:26:40.275Z,5.20
2018-08-19T23:29:08.932Z,5.60
2018-08-19T23:31:37.585Z,5.37
2018-08-19T23:34:06.579Z,5.30
2018-08-19T23:36:35.243Z,5.60
2018-08-19T23:39:05.412Z,5.00
2018-08-19T23:41:34.180Z,5.90
2018-08-19T23:44:03.032Z,5.00
2018-08-19T23:46:31.890Z,4.90
2018-08-19T23:49:00.545Z,5.10
2018-08-19T23:51:31.095Z,5.03
2018-08-19T23:54:01.094Z,4.27
2018-08-19T23:56:30.218Z,5.50
2018-08-19T23:58:59.823Z,4.97
